Climatologie pour Saint-Brevin les Pins
Jour • Résumé pour février 11, 2018 Système :  Mixte    Anglais   Métrique
« - 1 jour
+ 1 jour »
Jour Semaine Mois Année Personnalisé
  Maximum : Minimum : Moyenne :
Température sous abri : 52.2 °F /  11.2 °C 34.9 °F /  1.6 °C 45.7 °F /  7.6 °C
Point de rosée : 49.6 °F /  9.8 °C 32.2 °F /  0.1 °C 42.1 °F /  5.6 °C
Humidité : 98% 70% 88%
Vitesse du vent : 18mph /  29.0km/h - 4.8mph /  7.8km/h
Rafale : 20mph /  32.2km/h - -
Direction - - NW
Pression : 30.1 in /  1018.8 hPa 29.8 in /  1009.4 hPa -
Précipitations : 0.02 in /  0.5 mm    
Historical Graphs
 
 
Tableau de données pour février 11, 2018
Heure Tempé Pt rosée Pression Vent Vitesse Rafale Humidité Taux pluie (/hr) Soleil
00:00 49.6 °F /  9.8 °C 49.1 °F /  9.5 °C 29.9in /  1011.7hPa West 6mph /  9.7km/h 20mph /  32.2km/h 98% 0.03in /  0.8mm 0 W/m2
00:05 49.6 °F /  9.8 °C 49.1 °F /  9.5 °C 29.9in /  1011.7hPa West 8mph /  12.9km/h 15mph /  24.1km/h 98% 0.03in /  0.8mm 0 W/m2
00:10 49.8 °F /  9.9 °C 49.3 °F /  9.6 °C 29.9in /  1011.4hPa NW 10mph /  16.1km/h 16mph /  25.7km/h 98% 0.03in /  0.8mm 0 W/m2
00:15 49.8 °F /  9.9 °C 49.3 °F /  9.6 °C 29.9in /  1011.4hPa West 7mph /  11.3km/h 16mph /  25.7km/h 98% 0.03in /  0.8mm 0 W/m2
00:20 49.8 °F /  9.9 °C 49.3 °F /  9.6 °C 29.9in /  1011.4hPa West 5mph /  8.0km/h 18mph /  29.0km/h 98% 0.03in /  0.8mm 0 W/m2
00:25 49.8 °F /  9.9 °C 49.3 °F /  9.6 °C 29.9in /  1011.4hPa West 7mph /  11.3km/h 18mph /  29.0km/h 98% 0.02in /  0.5mm 0 W/m2
00:30 49.8 °F /  9.9 °C 49.3 °F /  9.6 °C 29.9in /  1011.1hPa WNW 7mph /  11.3km/h 18mph /  29.0km/h 98% 0.02in /  0.5mm 0 W/m2
00:35 49.8 °F /  9.9 °C 49.3 °F /  9.6 °C 29.9in /  1011.1hPa WSW 7mph /  11.3km/h 18mph /  29.0km/h 98% 0.02in /  0.5mm 0 W/m2
00:40 50 °F /  10.0 °C 49.5 °F /  9.7 °C 29.9in /  1011.1hPa WNW 9mph /  14.5km/h 20mph /  32.2km/h 98% 0.01in /  0.3mm 0 W/m2
00:45 50.2 °F /  10.1 °C 49.6 °F /  9.8 °C 29.9in /  1011.1hPa WSW 5mph /  8.0km/h 20mph /  32.2km/h 98% 0.01in /  0.3mm 0 W/m2
00:50 49.8 °F /  9.9 °C 49.3 °F /  9.6 °C 29.9in /  1011.1hPa WSW 4mph /  6.4km/h 14mph /  22.5km/h 98% 0in /  0.0mm 0 W/m2
00:55 50 °F /  10.0 °C 49.5 °F /  9.7 °C 29.9in /  1011.1hPa WNW 5mph /  8.0km/h 14mph /  22.5km/h 98% 0in /  0.0mm 0 W/m2
01:00 50 °F /  10.0 °C 49.5 °F /  9.7 °C 29.9in /  1011.1hPa NW 7mph /  11.3km/h 14mph /  22.5km/h 98% 0in /  0.0mm 0 W/m2
01:10 50 °F /  10.0 °C 49.5 °F /  9.7 °C 29.8in /  1010.7hPa West 5mph /  8.0km/h 13mph /  20.9km/h 98% 0in /  0.0mm 0 W/m2
01:15 50 °F /  10.0 °C 49.5 °F /  9.7 °C 29.8in /  1010.7hPa WNW 5mph /  8.0km/h 10mph /  16.1km/h 98% 0in /  0.0mm 0 W/m2
01:20 49.8 °F /  9.9 °C 49.3 °F /  9.6 °C 29.8in /  1010.7hPa NW 9mph /  14.5km/h 10mph /  16.1km/h 98% 0in /  0.0mm 0 W/m2
01:25 49.8 °F /  9.9 °C 49.3 °F /  9.6 °C 29.8in /  1010.7hPa WNW 7mph /  11.3km/h 12mph /  19.3km/h 98% 0in /  0.0mm 0 W/m2
01:30 49.8 °F /  9.9 °C 49.3 °F /  9.6 °C 29.8in /  1010.7hPa WNW 4mph /  6.4km/h 12mph /  19.3km/h 98% 0in /  0.0mm 0 W/m2
01:35 50 °F /  10.0 °C 49.5 °F /  9.7 °C 29.8in /  1010.7hPa West 6mph /  9.7km/h 10mph /  16.1km/h 98% 0in /  0.0mm 0 W/m2
01:40 49.8 °F /  9.9 °C 49.3 °F /  9.6 °C 29.8in /  1010.7hPa West 2mph /  3.2km/h 11mph /  17.7km/h 98% 0in /  0.0mm 0 W/m2
01:45 50 °F /  10.0 °C 49.5 °F /  9.7 °C 29.8in /  1010.7hPa WSW 5mph /  8.0km/h 12mph /  19.3km/h 98% 0in /  0.0mm 0 W/m2
01:50 50 °F /  10.0 °C 49.5 °F /  9.7 °C 29.8in /  1010.4hPa WNW 4mph /  6.4km/h 13mph /  20.9km/h 98% 0in /  0.0mm 0 W/m2
01:55 50 °F /  10.0 °C 49.5 °F /  9.7 °C 29.8in /  1010.4hPa WSW 6mph /  9.7km/h 14mph /  22.5km/h 98% 0in /  0.0mm 0 W/m2
02:00 50 °F /  10.0 °C 49.5 °F /  9.7 °C 29.8in /  1010.4hPa WNW 4mph /  6.4km/h 15mph /  24.1km/h 98% 0in /  0.0mm 0 W/m2
02:05 50 °F /  10.0 °C 49.5 °F /  9.7 °C 29.8in /  1010.4hPa WNW 2mph /  3.2km/h 15mph /  24.1km/h 98% 0in /  0.0mm 0 W/m2
02:10 49.8 °F /  9.9 °C 49.3 °F /  9.6 °C 29.8in /  1010.4hPa West 2mph /  3.2km/h 12mph /  19.3km/h 98% 0in /  0.0mm 0 W/m2
02:15 49.8 °F /  9.9 °C 49.3 °F /  9.6 °C 29.8in /  1010.4hPa West 8mph /  12.9km/h 12mph /  19.3km/h 98% 0in /  0.0mm 0 W/m2
02:20 49.6 °F /  9.8 °C 49.1 °F /  9.5 °C 29.8in /  1010.4hPa WNW 8mph /  12.9km/h 14mph /  22.5km/h 98% 0in /  0.0mm 0 W/m2
02:25 49.6 °F /  9.8 °C 49.1 °F /  9.5 °C 29.8in /  1010.4hPa NW 7mph /  11.3km/h 14mph /  22.5km/h 98% 0in /  0.0mm 0 W/m2
02:30 49.6 °F /  9.8 °C 49.1 °F /  9.5 °C 29.8in /  1010.0hPa West 2mph /  3.2km/h 9mph /  14.5km/h 98% 0in /  0.0mm 0 W/m2
02:35 49.8 °F /  9.9 °C 49.3 °F /  9.6 °C 29.8in /  1010.0hPa WNW 6mph /  9.7km/h 13mph /  20.9km/h 98% 0in /  0.0mm 0 W/m2
02:40 49.8 °F /  9.9 °C 49.3 °F /  9.6 °C 29.8in /  1010.0hPa WNW 3mph /  4.8km/h 13mph /  20.9km/h 98% 0in /  0.0mm 0 W/m2
02:45 50 °F /  10.0 °C 49.5 °F /  9.7 °C 29.8in /  1010.0hPa West 6mph /  9.7km/h 13mph /  20.9km/h 98% 0in /  0.0mm 0 W/m2
02:50 49.8 °F /  9.9 °C 49.3 °F /  9.6 °C 29.8in /  1010.0hPa WNW 4mph /  6.4km/h 13mph /  20.9km/h 98% 0.01in /  0.3mm 0 W/m2
02:55 49.8 °F /  9.9 °C 49.3 °F /  9.6 °C 29.8in /  1010.0hPa West 6mph /  9.7km/h 13mph /  20.9km/h 98% 0.01in /  0.3mm 0 W/m2
03:00 49.8 °F /  9.9 °C 49.3 °F /  9.6 °C 29.8in /  1010.0hPa WNW 9mph /  14.5km/h 12mph /  19.3km/h 98% 0.01in /  0.3mm 0 W/m2
03:05 49.8 °F /  9.9 °C 49.3 °F /  9.6 °C 29.8in /  1010.0hPa WNW 6mph /  9.7km/h 16mph /  25.7km/h 98% 0.01in /  0.3mm 0 W/m2
03:10 49.8 °F /  9.9 °C 49.3 °F /  9.6 °C 29.8in /  1010.0hPa West 4mph /  6.4km/h 16mph /  25.7km/h 98% 0.01in /  0.3mm 0 W/m2
03:15 49.8 °F /  9.9 °C 49.3 °F /  9.6 °C 29.8in /  1010.0hPa WNW 5mph /  8.0km/h 11mph /  17.7km/h 98% 0.01in /  0.3mm 0 W/m2
03:20 49.8 °F /  9.9 °C 49.3 °F /  9.6 °C 29.8in /  1010.0hPa West 5mph /  8.0km/h 12mph /  19.3km/h 98% 0.01in /  0.3mm 0 W/m2
03:25 49.8 °F /  9.9 °C 49.3 °F /  9.6 °C 29.8in /  1009.7hPa WNW 2mph /  3.2km/h 14mph /  22.5km/h 98% 0.01in /  0.3mm 0 W/m2
03:30 49.8 °F /  9.9 °C 49.3 °F /  9.6 °C 29.8in /  1009.7hPa West 4mph /  6.4km/h 14mph /  22.5km/h 98% 0.01in /  0.3mm 0 W/m2
03:35 49.8 °F /  9.9 °C 49.3 °F /  9.6 °C 29.8in /  1009.7hPa WNW 6mph /  9.7km/h 13mph /  20.9km/h 98% 0.01in /  0.3mm 0 W/m2
03:40 49.8 °F /  9.9 °C 49.3 °F /  9.6 °C 29.8in /  1009.7hPa NW 4mph /  6.4km/h 13mph /  20.9km/h 98% 0.02in /  0.5mm 0 W/m2
03:45 49.8 °F /  9.9 °C 49.3 °F /  9.6 °C 29.8in /  1009.4hPa WNW 2mph /  3.2km/h 13mph /  20.9km/h 98% 0.01in /  0.3mm 0 W/m2
03:50 49.8 °F /  9.9 °C 49.3 °F /  9.6 °C 29.8in /  1009.7hPa WNW 8mph /  12.9km/h 13mph /  20.9km/h 98% 0.01in /  0.3mm 0 W/m2
03:55 49.8 °F /  9.9 °C 49.3 °F /  9.6 °C 29.8in /  1009.4hPa WNW 4mph /  6.4km/h 15mph /  24.1km/h 98% 0.01in /  0.3mm 0 W/m2
04:00 49.6 °F /  9.8 °C 49.1 °F /  9.5 °C 29.8in /  1009.4hPa WNW 3mph /  4.8km/h 15mph /  24.1km/h 98% 0.01in /  0.3mm 0 W/m2
04:05 49.8 °F /  9.9 °C 49.3 °F /  9.6 °C 29.8in /  1009.4hPa NW 7mph /  11.3km/h 13mph /  20.9km/h 98% 0.01in /  0.3mm 0 W/m2
04:10 49.8 °F /  9.9 °C 49.3 °F /  9.6 °C 29.8in /  1009.4hPa WNW 6mph /  9.7km/h 14mph /  22.5km/h 98% 0.01in /  0.3mm 0 W/m2
04:15 49.8 °F /  9.9 °C 49.3 °F /  9.6 °C 29.8in /  1009.4hPa WSW 4mph /  6.4km/h 14mph /  22.5km/h 98% 0.02in /  0.5mm 0 W/m2
04:20 49.8 °F /  9.9 °C 49.3 °F /  9.6 °C 29.8in /  1009.4hPa WNW 4mph /  6.4km/h 13mph /  20.9km/h 98% 0.02in /  0.5mm 0 W/m2
04:25 50 °F /  10.0 °C 49.5 °F /  9.7 °C 29.8in /  1009.4hPa WNW 9mph /  14.5km/h 13mph /  20.9km/h 98% 0.02in /  0.5mm 0 W/m2
04:30 49.8 °F /  9.9 °C 49.3 °F /  9.6 °C 29.8in /  1009.4hPa WNW 5mph /  8.0km/h 14mph /  22.5km/h 98% 0.02in /  0.5mm 0 W/m2
04:35 49.8 °F /  9.9 °C 49.3 °F /  9.6 °C 29.8in /  1009.4hPa WNW 9mph /  14.5km/h 16mph /  25.7km/h 98% 0.02in /  0.5mm 0 W/m2
04:40 49.8 °F /  9.9 °C 49.3 °F /  9.6 °C 29.8in /  1009.4hPa West 14mph /  22.5km/h 17mph /  27.4km/h 98% 0.01in /  0.3mm 0 W/m2
04:45 50 °F /  10.0 °C 49.5 °F /  9.7 °C 29.8in /  1009.4hPa NW 2mph /  3.2km/h 17mph /  27.4km/h 98% 0.01in /  0.3mm 0 W/m2
04:50 50 °F /  10.0 °C 49.5 °F /  9.7 °C 29.8in /  1009.4hPa NW 6mph /  9.7km/h 17mph /  27.4km/h 98% 0.01in /  0.3mm 0 W/m2
04:55 49.8 °F /  9.9 °C 49.3 °F /  9.6 °C 29.8in /  1009.4hPa NW 13mph /  20.9km/h 15mph /  24.1km/h 98% 0.01in /  0.3mm 0 W/m2
05:00 49.5 °F /  9.7 °C 48.9 °F /  9.4 °C 29.8in /  1009.7hPa WNW 5mph /  8.0km/h 17mph /  27.4km/h 98% 0.01in /  0.3mm 0 W/m2
05:05 49.3 °F /  9.6 °C 48.7 °F /  9.3 °C 29.8in /  1009.7hPa NW 5mph /  8.0km/h 17mph /  27.4km/h 98% 0.01in /  0.3mm 0 W/m2
05:10 48.9 °F /  9.4 °C 48.4 °F /  9.1 °C 29.8in /  1009.7hPa WNW 8mph /  12.9km/h 15mph /  24.1km/h 98% 0.01in /  0.3mm 0 W/m2
05:15 48.7 °F /  9.3 °C 48.2 °F /  9.0 °C 29.8in /  1009.7hPa NW 6mph /  9.7km/h 15mph /  24.1km/h 98% 0in /  0.0mm 0 W/m2
05:20 48.7 °F /  9.3 °C 48.2 °F /  9.0 °C 29.8in /  1009.7hPa West 8mph /  12.9km/h 13mph /  20.9km/h 98% 0in /  0.0mm 0 W/m2
05:25 48.7 °F /  9.3 °C 48.2 °F /  9.0 °C 29.8in /  1009.7hPa NNW 1mph /  1.6km/h 15mph /  24.1km/h 98% 0in /  0.0mm 0 W/m2
05:30 48.7 °F /  9.3 °C 48.2 °F /  9.0 °C 29.8in /  1009.7hPa NW 4mph /  6.4km/h 15mph /  24.1km/h 98% 0in /  0.0mm 0 W/m2
05:35 48.6 °F /  9.2 °C 48 °F /  8.9 °C 29.8in /  1010.0hPa NW 2mph /  3.2km/h 13mph /  20.9km/h 98% 0in /  0.0mm 0 W/m2
05:40 48.4 °F /  9.1 °C 47.8 °F /  8.8 °C 29.8in /  1010.0hPa NW 4mph /  6.4km/h 13mph /  20.9km/h 98% 0in /  0.0mm 0 W/m2
05:45 48.4 °F /  9.1 °C 47.8 °F /  8.8 °C 29.8in /  1010.0hPa WNW 4mph /  6.4km/h 13mph /  20.9km/h 98% 0in /  0.0mm 0 W/m2
05:50 48 °F /  8.9 °C 47.5 °F /  8.6 °C 29.8in /  1010.0hPa NW 7mph /  11.3km/h 12mph /  19.3km/h 98% 0in /  0.0mm 0 W/m2
05:55 48 °F /  8.9 °C 47.5 °F /  8.6 °C 29.8in /  1010.0hPa NW 8mph /  12.9km/h 12mph /  19.3km/h 98% 0in /  0.0mm 0 W/m2
06:00 47.8 °F /  8.8 °C 47.3 °F /  8.5 °C 29.8in /  1010.0hPa WNW 5mph /  8.0km/h 10mph /  16.1km/h 98% 0in /  0.0mm 0 W/m2
06:05 47.7 °F /  8.7 °C 47.1 °F /  8.4 °C 29.8in /  1010.0hPa WNW 7mph /  11.3km/h 9mph /  14.5km/h 98% 0in /  0.0mm 0 W/m2
06:10 47.7 °F /  8.7 °C 47.1 °F /  8.4 °C 29.8in /  1010.4hPa NW 4mph /  6.4km/h 12mph /  19.3km/h 98% 0in /  0.0mm 0 W/m2
06:15 47.5 °F /  8.6 °C 46.9 °F /  8.3 °C 29.8in /  1010.4hPa NNW 8mph /  12.9km/h 12mph /  19.3km/h 98% 0in /  0.0mm 0 W/m2
06:20 47.5 °F /  8.6 °C 46.9 °F /  8.3 °C 29.8in /  1010.4hPa NNW 5mph /  8.0km/h 8mph /  12.9km/h 98% 0in /  0.0mm 0 W/m2
06:25 47.5 °F /  8.6 °C 46.9 °F /  8.3 °C 29.8in /  1010.4hPa NNW 4mph /  6.4km/h 8mph /  12.9km/h 98% 0in /  0.0mm 0 W/m2
06:30 47.1 °F /  8.4 °C 46.6 °F /  8.1 °C 29.8in /  1010.4hPa NNW 5mph /  8.0km/h 14mph /  22.5km/h 98% 0in /  0.0mm 0 W/m2
06:35 46.8 °F /  8.2 °C 45.9 °F /  7.7 °C 29.8in /  1010.7hPa NW 5mph /  8.0km/h 14mph /  22.5km/h 97% 0in /  0.0mm 0 W/m2
06:40 45.9 °F /  7.7 °C 45 °F /  7.2 °C 29.8in /  1010.7hPa NW 3mph /  4.8km/h 13mph /  20.9km/h 97% 0in /  0.0mm 0 W/m2
06:45 45 °F /  7.2 °C 44.2 °F /  6.8 °C 29.8in /  1010.7hPa NW 3mph /  4.8km/h 13mph /  20.9km/h 97% 0in /  0.0mm 0 W/m2
06:50 44.2 °F /  6.8 °C 43.5 °F /  6.4 °C 29.9in /  1011.1hPa NW 9mph /  14.5km/h 11mph /  17.7km/h 97% 0in /  0.0mm 0 W/m2
06:55 43.9 °F /  6.6 °C 43.2 °F /  6.2 °C 29.9in /  1011.1hPa NW 2mph /  3.2km/h 11mph /  17.7km/h 97% 0in /  0.0mm 0 W/m2
07:00 43.9 °F /  6.6 °C 43 °F /  6.1 °C 29.9in /  1011.1hPa NW 6mph /  9.7km/h 14mph /  22.5km/h 97% 0in /  0.0mm 0 W/m2
07:05 44.1 °F /  6.7 °C 43.2 °F /  6.2 °C 29.9in /  1011.1hPa NW 6mph /  9.7km/h 14mph /  22.5km/h 97% 0in /  0.0mm 0 W/m2
07:10 44.1 °F /  6.7 °C 43.3 °F /  6.3 °C 29.9in /  1011.4hPa NW 2mph /  3.2km/h 9mph /  14.5km/h 97% 0in /  0.0mm 0 W/m2
07:15 44.1 °F /  6.7 °C 43.3 °F /  6.3 °C 29.9in /  1011.1hPa NNW 4mph /  6.4km/h 8mph /  12.9km/h 97% 0in /  0.0mm 0 W/m2
07:20 44.2 °F /  6.8 °C 43.5 °F /  6.4 °C 29.9in /  1011.4hPa NNW 1mph /  1.6km/h 8mph /  12.9km/h 97% 0in /  0.0mm 0 W/m2
07:25 44.8 °F /  7.1 °C 43.9 °F /  6.6 °C 29.9in /  1011.4hPa NW 6mph /  9.7km/h 8mph /  12.9km/h 97% 0in /  0.0mm 0 W/m2
07:30 44.8 °F /  7.1 °C 43.7 °F /  6.5 °C 29.9in /  1011.4hPa NW 4mph /  6.4km/h 8mph /  12.9km/h 96% 0in /  0.0mm 0 W/m2
07:35 44.6 °F /  7.0 °C 43.5 °F /  6.4 °C 29.9in /  1011.4hPa NW 1mph /  1.6km/h 7mph /  11.3km/h 96% 0in /  0.0mm 0 W/m2
07:40 44.4 °F /  6.9 °C 43.5 °F /  6.4 °C 29.9in /  1011.4hPa NNW 4mph /  6.4km/h 7mph /  11.3km/h 96% 0in /  0.0mm 0 W/m2
07:45 44.2 °F /  6.8 °C 43.2 °F /  6.2 °C 29.9in /  1011.4hPa NW 2mph /  3.2km/h 6mph /  9.7km/h 96% 0in /  0.0mm 0 W/m2
07:50 43.9 °F /  6.6 °C 42.6 °F /  5.9 °C 29.9in /  1011.7hPa WNW 3mph /  4.8km/h 6mph /  9.7km/h 95% 0in /  0.0mm 0 W/m2
07:55 43.5 °F /  6.4 °C 42.6 °F /  5.9 °C 29.9in /  1011.7hPa WNW 6mph /  9.7km/h 8mph /  12.9km/h 96% 0in /  0.0mm 0 W/m2
08:00 43.5 °F /  6.4 °C 42.4 °F /  5.8 °C 29.9in /  1011.7hPa NW 2mph /  3.2km/h 8mph /  12.9km/h 96% 0in /  0.0mm 0 W/m2
08:05 43.3 °F /  6.3 °C 42.1 °F /  5.6 °C 29.9in /  1011.7hPa WNW 2mph /  3.2km/h 7mph /  11.3km/h 95% 0in /  0.0mm 0 W/m2
08:10 43.3 °F /  6.3 °C 41.9 °F /  5.5 °C 29.9in /  1012.1hPa WNW 4mph /  6.4km/h 7mph /  11.3km/h 95% 0in /  0.0mm 0 W/m2
08:15 42.8 °F /  6.0 °C 41.5 °F /  5.3 °C 29.9in /  1012.1hPa WNW 3mph /  4.8km/h 6mph /  9.7km/h 95% 0in /  0.0mm 0 W/m2
08:20 42.6 °F /  5.9 °C 41.4 °F /  5.2 °C 29.9in /  1012.1hPa Calm   7mph /  11.3km/h 95% 0in /  0.0mm 5 W/m2
08:25 43 °F /  6.1 °C 41.5 °F /  5.3 °C 29.9in /  1012.4hPa WNW 1mph /  1.6km/h 7mph /  11.3km/h 95% 0in /  0.0mm 5 W/m2
08:30 43 °F /  6.1 °C 41.5 °F /  5.3 °C 29.9in /  1012.4hPa WNW 3mph /  4.8km/h 6mph /  9.7km/h 95% 0in /  0.0mm 9 W/m2
08:35 43 °F /  6.1 °C 41.7 °F /  5.4 °C 29.9in /  1012.4hPa WNW 4mph /  6.4km/h 8mph /  12.9km/h 95% 0in /  0.0mm 12 W/m2
08:40 43.3 °F /  6.3 °C 41.9 °F /  5.5 °C 29.9in /  1012.4hPa NNW 6mph /  9.7km/h 8mph /  12.9km/h 95% 0in /  0.0mm 18 W/m2
08:45 43.5 °F /  6.4 °C 42.3 °F /  5.7 °C 29.9in /  1012.4hPa NW 2mph /  3.2km/h 8mph /  12.9km/h 95% 0in /  0.0mm 26 W/m2
08:50 43.9 °F /  6.6 °C 42.4 °F /  5.8 °C 29.9in /  1012.4hPa WNW 2mph /  3.2km/h 8mph /  12.9km/h 95% 0in /  0.0mm 28 W/m2
08:55 44.1 °F /  6.7 °C 42.8 °F /  6.0 °C 29.9in /  1012.4hPa NW 7mph /  11.3km/h 7mph /  11.3km/h 95% 0in /  0.0mm 33 W/m2
09:00 44.2 °F /  6.8 °C 42.6 °F /  5.9 °C 29.9in /  1012.8hPa WNW 3mph /  4.8km/h 9mph /  14.5km/h 94% 0in /  0.0mm 32 W/m2
09:05 44.1 °F /  6.7 °C 42.4 °F /  5.8 °C 29.9in /  1012.8hPa NW 7mph /  11.3km/h 9mph /  14.5km/h 94% 0in /  0.0mm 37 W/m2
09:10 44.1 °F /  6.7 °C 42.4 °F /  5.8 °C 29.9in /  1012.8hPa NW 6mph /  9.7km/h 9mph /  14.5km/h 94% 0in /  0.0mm 42 W/m2
09:15 44.1 °F /  6.7 °C 42.4 °F /  5.8 °C 29.9in /  1012.8hPa NW 4mph /  6.4km/h 11mph /  17.7km/h 94% 0in /  0.0mm 44 W/m2
09:20 44.2 °F /  6.8 °C 42.3 °F /  5.7 °C 29.9in /  1012.8hPa WNW 4mph /  6.4km/h 11mph /  17.7km/h 93% 0in /  0.0mm 53 W/m2
09:25 44.4 °F /  6.9 °C 42.4 °F /  5.8 °C 29.9in /  1012.8hPa WNW 4mph /  6.4km/h 9mph /  14.5km/h 93% 0in /  0.0mm 58 W/m2
09:30 44.4 °F /  6.9 °C 42.3 °F /  5.7 °C 29.9in /  1013.1hPa NW 4mph /  6.4km/h 7mph /  11.3km/h 92% 0in /  0.0mm 53 W/m2
09:35 44.4 °F /  6.9 °C 42.3 °F /  5.7 °C 29.9in /  1013.1hPa WNW 6mph /  9.7km/h 8mph /  12.9km/h 92% 0in /  0.0mm 62 W/m2
09:40 44.6 °F /  7.0 °C 42.4 °F /  5.8 °C 29.9in /  1013.1hPa WNW 3mph /  4.8km/h 9mph /  14.5km/h 92% 0in /  0.0mm 86 W/m2
09:45 45.1 °F /  7.3 °C 43 °F /  6.1 °C 29.9in /  1013.1hPa NW 3mph /  4.8km/h 9mph /  14.5km/h 92% 0in /  0.0mm 113 W/m2
09:50 45.3 °F /  7.4 °C 43 °F /  6.1 °C 29.9in /  1013.1hPa NW 6mph /  9.7km/h 7mph /  11.3km/h 91% 0in /  0.0mm 114 W/m2
09:55 45.7 °F /  7.6 °C 43 °F /  6.1 °C 29.9in /  1013.1hPa NW 5mph /  8.0km/h 7mph /  11.3km/h 90% 0in /  0.0mm 118 W/m2
10:00 45.9 °F /  7.7 °C 43 °F /  6.1 °C 29.9in /  1013.1hPa WNW 4mph /  6.4km/h 9mph /  14.5km/h 90% 0in /  0.0mm 118 W/m2
10:05 45.9 °F /  7.7 °C 42.8 °F /  6.0 °C 29.9in /  1013.1hPa NW 1mph /  1.6km/h 9mph /  14.5km/h 89% 0in /  0.0mm 127 W/m2
10:10 46 °F /  7.8 °C 42.6 °F /  5.9 °C 29.9in /  1013.1hPa NW 2mph /  3.2km/h 8mph /  12.9km/h 88% 0in /  0.0mm 134 W/m2
10:15 46 °F /  7.8 °C 42.8 °F /  6.0 °C 29.9in /  1013.1hPa Calm   8mph /  12.9km/h 88% 0in /  0.0mm 195 W/m2
10:25 46.6 °F /  8.1 °C 42.8 °F /  6.0 °C 29.9in /  1013.4hPa Calm   8mph /  12.9km/h 87% 0in /  0.0mm 114 W/m2
10:30 46.4 °F /  8.0 °C 42.4 °F /  5.8 °C 29.9in /  1013.4hPa WNW 3mph /  4.8km/h 12mph /  19.3km/h 86% 0in /  0.0mm 139 W/m2
10:35 46.4 °F /  8.0 °C 42.8 °F /  6.0 °C 29.9in /  1013.4hPa WNW 5mph /  8.0km/h 12mph /  19.3km/h 87% 0in /  0.0mm 162 W/m2
10:40 46.8 °F /  8.2 °C 43 °F /  6.1 °C 29.9in /  1013.4hPa WNW 4mph /  6.4km/h 10mph /  16.1km/h 87% 0in /  0.0mm 183 W/m2
10:45 46.9 °F /  8.3 °C 43 °F /  6.1 °C 29.9in /  1013.4hPa NNW 4mph /  6.4km/h 10mph /  16.1km/h 86% 0in /  0.0mm 265 W/m2
10:50 47.3 °F /  8.5 °C 43.3 °F /  6.3 °C 29.9in /  1013.4hPa NW 1mph /  1.6km/h 9mph /  14.5km/h 86% 0in /  0.0mm 253 W/m2
10:55 47.5 °F /  8.6 °C 43 °F /  6.1 °C 29.9in /  1013.4hPa WNW 5mph /  8.0km/h 10mph /  16.1km/h 84% 0in /  0.0mm 309 W/m2
11:00 47.5 °F /  8.6 °C 43 °F /  6.1 °C 29.9in /  1013.4hPa NW 5mph /  8.0km/h 10mph /  16.1km/h 84% 0in /  0.0mm 165 W/m2
11:05 47.3 °F /  8.5 °C 42.6 °F /  5.9 °C 29.9in /  1013.4hPa NW 3mph /  4.8km/h 9mph /  14.5km/h 84% 0in /  0.0mm 192 W/m2
11:10 47.1 °F /  8.4 °C 42.6 °F /  5.9 °C 29.9in /  1013.4hPa WNW 4mph /  6.4km/h 12mph /  19.3km/h 84% 0in /  0.0mm 202 W/m2
11:15 47.5 °F /  8.6 °C 42.4 °F /  5.8 °C 29.9in /  1013.4hPa WNW 4mph /  6.4km/h 13mph /  20.9km/h 83% 0in /  0.0mm 199 W/m2
11:20 47.7 °F /  8.7 °C 42.4 °F /  5.8 °C 29.9in /  1013.4hPa NNW 8mph /  12.9km/h 13mph /  20.9km/h 82% 0in /  0.0mm 197 W/m2
11:25 48 °F /  8.9 °C 43.2 °F /  6.2 °C 29.9in /  1013.4hPa WNW 5mph /  8.0km/h 13mph /  20.9km/h 83% 0in /  0.0mm 244 W/m2
11:30 48 °F /  8.9 °C 42.6 °F /  5.9 °C 29.9in /  1013.4hPa NW 7mph /  11.3km/h 13mph /  20.9km/h 81% 0in /  0.0mm 283 W/m2
11:35 49.1 °F /  9.5 °C 43.9 °F /  6.6 °C 29.9in /  1013.4hPa NNW 10mph /  16.1km/h 13mph /  20.9km/h 82% 0in /  0.0mm 304 W/m2
11:40 49.8 °F /  9.9 °C 43.7 °F /  6.5 °C 29.9in /  1013.4hPa NNW 5mph /  8.0km/h 12mph /  19.3km/h 79% 0in /  0.0mm 464 W/m2
11:45 49.6 °F /  9.8 °C 42.4 °F /  5.8 °C 29.9in /  1013.4hPa WNW 8mph /  12.9km/h 12mph /  19.3km/h 76% 0in /  0.0mm 250 W/m2
11:50 48.7 °F /  9.3 °C 41.5 °F /  5.3 °C 29.9in /  1013.4hPa NW 5mph /  8.0km/h 12mph /  19.3km/h 76% 0in /  0.0mm 195 W/m2
11:55 48.7 °F /  9.3 °C 42.1 °F /  5.6 °C 29.9in /  1013.4hPa WNW 6mph /  9.7km/h 12mph /  19.3km/h 78% 0in /  0.0mm 482 W/m2
12:00 49.8 °F /  9.9 °C 42.6 °F /  5.9 °C 29.9in /  1013.4hPa NNW 3mph /  4.8km/h 11mph /  17.7km/h 76% 0in /  0.0mm 445 W/m2
12:05 50.5 °F /  10.3 °C 42.6 °F /  5.9 °C 29.9in /  1013.4hPa WNW 7mph /  11.3km/h 16mph /  25.7km/h 74% 0in /  0.0mm 520 W/m2
12:10 50.5 °F /  10.3 °C 42.6 °F /  5.9 °C 29.9in /  1013.4hPa WNW 11mph /  17.7km/h 16mph /  25.7km/h 74% 0in /  0.0mm 538 W/m2
12:15 50.7 °F /  10.4 °C 42.4 °F /  5.8 °C 29.9in /  1013.4hPa NW 9mph /  14.5km/h 16mph /  25.7km/h 73% 0in /  0.0mm 462 W/m2
12:20 50.9 °F /  10.5 °C 42.6 °F /  5.9 °C 29.9in /  1013.4hPa WNW 8mph /  12.9km/h 16mph /  25.7km/h 73% 0in /  0.0mm 504 W/m2
12:25 50.5 °F /  10.3 °C 42.4 °F /  5.8 °C 29.9in /  1013.4hPa NW 7mph /  11.3km/h 13mph /  20.9km/h 74% 0in /  0.0mm 299 W/m2
12:30 50.2 °F /  10.1 °C 42.3 °F /  5.7 °C 29.9in /  1013.4hPa WNW 11mph /  17.7km/h 15mph /  24.1km/h 74% 0in /  0.0mm 258 W/m2
12:35 50.2 °F /  10.1 °C 42.4 °F /  5.8 °C 29.9in /  1013.4hPa WNW 4mph /  6.4km/h 15mph /  24.1km/h 75% 0in /  0.0mm 262 W/m2
12:40 49.8 °F /  9.9 °C 41.5 °F /  5.3 °C 29.9in /  1013.4hPa NW 5mph /  8.0km/h 16mph /  25.7km/h 73% 0in /  0.0mm 295 W/m2
12:45 49.8 °F /  9.9 °C 41.5 °F /  5.3 °C 29.9in /  1013.4hPa NW 6mph /  9.7km/h 16mph /  25.7km/h 73% 0in /  0.0mm 262 W/m2
12:50 49.8 °F /  9.9 °C 42.3 °F /  5.7 °C 29.9in /  1013.4hPa NW 4mph /  6.4km/h 16mph /  25.7km/h 75% 0in /  0.0mm 218 W/m2
12:55 49.6 °F /  9.8 °C 42.1 °F /  5.6 °C 29.9in /  1013.4hPa NNW 6mph /  9.7km/h 13mph /  20.9km/h 75% 0in /  0.0mm 223 W/m2
13:00 49.6 °F /  9.8 °C 42.3 °F /  5.7 °C 29.9in /  1013.4hPa WNW 9mph /  14.5km/h 13mph /  20.9km/h 76% 0in /  0.0mm 223 W/m2
13:05 49.6 °F /  9.8 °C 42.6 °F /  5.9 °C 29.9in /  1013.4hPa WNW 5mph /  8.0km/h 13mph /  20.9km/h 77% 0in /  0.0mm 272 W/m2
13:10 49.8 °F /  9.9 °C 43.3 °F /  6.3 °C 29.9in /  1013.4hPa NW 9mph /  14.5km/h 13mph /  20.9km/h 78% 0in /  0.0mm 308 W/m2
13:15 49.8 °F /  9.9 °C 42.6 °F /  5.9 °C 29.9in /  1013.4hPa WNW 6mph /  9.7km/h 13mph /  20.9km/h 76% 0in /  0.0mm 236 W/m2
13:20 49.5 °F /  9.7 °C 42.3 °F /  5.7 °C 29.9in /  1013.4hPa West 5mph /  8.0km/h 15mph /  24.1km/h 76% 0in /  0.0mm 162 W/m2
13:25 49.3 °F /  9.6 °C 41.9 °F /  5.5 °C 29.9in /  1013.4hPa West 4mph /  6.4km/h 15mph /  24.1km/h 76% 0in /  0.0mm 111 W/m2
13:30 48.9 °F /  9.4 °C 42.1 °F /  5.6 °C 29.9in /  1013.4hPa WNW 6mph /  9.7km/h 12mph /  19.3km/h 77% 0in /  0.0mm 114 W/m2
13:35 48.7 °F /  9.3 °C 41.9 °F /  5.5 °C 29.9in /  1013.4hPa West 8mph /  12.9km/h 14mph /  22.5km/h 77% 0in /  0.0mm 158 W/m2
13:40 48.7 °F /  9.3 °C 41.9 °F /  5.5 °C 29.9in /  1013.4hPa WNW 6mph /  9.7km/h 16mph /  25.7km/h 77% 0in /  0.0mm 211 W/m2
13:45 48.9 °F /  9.4 °C 41.7 °F /  5.4 °C 29.9in /  1013.1hPa West 5mph /  8.0km/h 16mph /  25.7km/h 76% 0in /  0.0mm 197 W/m2
13:50 49.5 °F /  9.7 °C 42.4 °F /  5.8 °C 29.9in /  1013.1hPa WNW 9mph /  14.5km/h 16mph /  25.7km/h 77% 0in /  0.0mm 237 W/m2
13:55 49.5 °F /  9.7 °C 42.3 °F /  5.7 °C 29.9in /  1013.1hPa WNW 12mph /  19.3km/h 15mph /  24.1km/h 76% 0in /  0.0mm 265 W/m2
14:00 49.6 °F /  9.8 °C 42.1 °F /  5.6 °C 29.9in /  1013.1hPa West 10mph /  16.1km/h 15mph /  24.1km/h 75% 0in /  0.0mm 274 W/m2
14:05 49.8 °F /  9.9 °C 42.3 °F /  5.7 °C 29.9in /  1013.4hPa NW 9mph /  14.5km/h 15mph /  24.1km/h 75% 0in /  0.0mm 269 W/m2
14:10 49.6 °F /  9.8 °C 41.4 °F /  5.2 °C 29.9in /  1013.1hPa West 10mph /  16.1km/h 17mph /  27.4km/h 73% 0in /  0.0mm 171 W/m2
14:15 49.5 °F /  9.7 °C 41.5 °F /  5.3 °C 29.9in /  1013.1hPa West 9mph /  14.5km/h 17mph /  27.4km/h 74% 0in /  0.0mm 306 W/m2
14:20 50.4 °F /  10.2 °C 41.7 °F /  5.4 °C 29.9in /  1013.1hPa NW 11mph /  17.7km/h 17mph /  27.4km/h 72% 0in /  0.0mm 554 W/m2
14:25 52.2 °F /  11.2 °C 44.2 °F /  6.8 °C 29.9in /  1013.1hPa WNW 9mph /  14.5km/h 17mph /  27.4km/h 74% 0in /  0.0mm 394 W/m2
14:30 51.4 °F /  10.8 °C 43.2 °F /  6.2 °C 29.9in /  1013.1hPa NNW 9mph /  14.5km/h 16mph /  25.7km/h 73% 0in /  0.0mm 246 W/m2
14:35 50.4 °F /  10.2 °C 40.8 °F /  4.9 °C 29.9in /  1013.4hPa West 6mph /  9.7km/h 14mph /  22.5km/h 70% 0in /  0.0mm 130 W/m2
14:40 49.5 °F /  9.7 °C 40.5 °F /  4.7 °C 29.9in /  1013.4hPa WNW 10mph /  16.1km/h 17mph /  27.4km/h 71% 0in /  0.0mm 188 W/m2
14:45 49.3 °F /  9.6 °C 41.2 °F /  5.1 °C 29.9in /  1013.4hPa WNW 10mph /  16.1km/h 17mph /  27.4km/h 74% 0in /  0.0mm 163 W/m2
14:50 48.7 °F /  9.3 °C 41.5 °F /  5.3 °C 29.9in /  1013.4hPa NW 18mph /  29.0km/h 18mph /  29.0km/h 76% 0in /  0.0mm 223 W/m2
14:55 48.6 °F /  9.2 °C 41.9 °F /  5.5 °C 29.9in /  1013.4hPa West 11mph /  17.7km/h 18mph /  29.0km/h 78% 0in /  0.0mm 142 W/m2
15:00 48.4 °F /  9.1 °C 41.4 °F /  5.2 °C 29.9in /  1013.4hPa WNW 8mph /  12.9km/h 18mph /  29.0km/h 77% 0in /  0.0mm 169 W/m2
15:05 48 °F /  8.9 °C 40.1 °F /  4.5 °C 29.9in /  1013.4hPa West 9mph /  14.5km/h 15mph /  24.1km/h 74% 0in /  0.0mm 153 W/m2
15:10 47.8 °F /  8.8 °C 40.3 °F /  4.6 °C 29.9in /  1013.4hPa West 4mph /  6.4km/h 15mph /  24.1km/h 75% 0in /  0.0mm 218 W/m2
15:15 47.8 °F /  8.8 °C 40.6 °F /  4.8 °C 29.9in /  1013.4hPa NW 4mph /  6.4km/h 14mph /  22.5km/h 76% 0in /  0.0mm 167 W/m2
15:20 47.5 °F /  8.6 °C 39.9 °F /  4.4 °C 29.9in /  1013.4hPa NW 4mph /  6.4km/h 17mph /  27.4km/h 75% 0in /  0.0mm 114 W/m2
15:25 47.1 °F /  8.4 °C 40.3 °F /  4.6 °C 29.9in /  1013.4hPa NW 14mph /  22.5km/h 20mph /  32.2km/h 77% 0in /  0.0mm 116 W/m2
15:30 46.9 °F /  8.3 °C 40.8 °F /  4.9 °C 29.9in /  1013.8hPa North 5mph /  8.0km/h 20mph /  32.2km/h 79% 0in /  0.0mm 111 W/m2
15:35 47.1 °F /  8.4 °C 41 °F /  5.0 °C 29.9in /  1013.4hPa NNW 8mph /  12.9km/h 16mph /  25.7km/h 79% 0in /  0.0mm 113 W/m2
15:40 47.1 °F /  8.4 °C 41 °F /  5.0 °C 29.9in /  1013.8hPa NW 11mph /  17.7km/h 13mph /  20.9km/h 79% 0in /  0.0mm 121 W/m2
15:45 47.1 °F /  8.4 °C 40.6 °F /  4.8 °C 29.9in /  1013.4hPa NW 7mph /  11.3km/h 13mph /  20.9km/h 78% 0in /  0.0mm 121 W/m2
15:50 47.3 °F /  8.5 °C 41.2 °F /  5.1 °C 29.9in /  1013.8hPa NW 8mph /  12.9km/h 13mph /  20.9km/h 79% 0in /  0.0mm 114 W/m2
15:55 47.3 °F /  8.5 °C 41.2 °F /  5.1 °C 29.9in /  1013.4hPa NNW 11mph /  17.7km/h 11mph /  17.7km/h 79% 0in /  0.0mm 123 W/m2
16:00 47.1 °F /  8.4 °C 40.6 °F /  4.8 °C 29.9in /  1013.4hPa WNW 6mph /  9.7km/h 11mph /  17.7km/h 78% 0in /  0.0mm 105 W/m2
16:05 47.1 °F /  8.4 °C 40.6 °F /  4.8 °C 29.9in /  1013.4hPa NNW 6mph /  9.7km/h 11mph /  17.7km/h 78% 0in /  0.0mm 113 W/m2
16:10 46.9 °F /  8.3 °C 39.6 °F /  4.2 °C 29.9in /  1013.8hPa NW 8mph /  12.9km/h 16mph /  25.7km/h 75% 0in /  0.0mm 77 W/m2
16:15 46.8 °F /  8.2 °C 39 °F /  3.9 °C 29.9in /  1013.8hPa WNW 2mph /  3.2km/h 16mph /  25.7km/h 74% 0in /  0.0mm 62 W/m2
16:20 46.8 °F /  8.2 °C 39.2 °F /  4.0 °C 29.9in /  1013.8hPa NNW 5mph /  8.0km/h 16mph /  25.7km/h 75% 0in /  0.0mm 90 W/m2
16:25 46.8 °F /  8.2 °C 39.6 °F /  4.2 °C 29.9in /  1013.8hPa NW 4mph /  6.4km/h 16mph /  25.7km/h 76% 0in /  0.0mm 104 W/m2
16:30 46.9 °F /  8.3 °C 40.1 °F /  4.5 °C 29.9in /  1013.8hPa WNW 6mph /  9.7km/h 11mph /  17.7km/h 77% 0in /  0.0mm 86 W/m2
16:35 46.8 °F /  8.2 °C 39.9 °F /  4.4 °C 29.9in /  1013.8hPa NW 2mph /  3.2km/h 11mph /  17.7km/h 77% 0in /  0.0mm 93 W/m2
16:40 46.9 °F /  8.3 °C 40.5 °F /  4.7 °C 29.9in /  1013.8hPa NW 6mph /  9.7km/h 9mph /  14.5km/h 78% 0in /  0.0mm 91 W/m2
16:45 46.8 °F /  8.2 °C 40.3 °F /  4.6 °C 29.9in /  1013.8hPa Calm   9mph /  14.5km/h 78% 0in /  0.0mm 93 W/m2
16:50 46.8 °F /  8.2 °C 40.3 °F /  4.6 °C 29.9in /  1013.8hPa NW 2mph /  3.2km/h 8mph /  12.9km/h 78% 0in /  0.0mm 91 W/m2
16:55 46.8 °F /  8.2 °C 41 °F /  5.0 °C 29.9in /  1013.8hPa NW 4mph /  6.4km/h 7mph /  11.3km/h 80% 0in /  0.0mm 81 W/m2
17:00 46.8 °F /  8.2 °C 40.8 °F /  4.9 °C 29.9in /  1013.8hPa NNW 1mph /  1.6km/h 6mph /  9.7km/h 80% 0in /  0.0mm 76 W/m2
17:05 46.6 °F /  8.1 °C 40.6 °F /  4.8 °C 29.9in /  1013.8hPa NW 2mph /  3.2km/h 6mph /  9.7km/h 80% 0in /  0.0mm 63 W/m2
17:10 46.2 °F /  7.9 °C 40.6 °F /  4.8 °C 29.9in /  1013.8hPa North 4mph /  6.4km/h 6mph /  9.7km/h 81% 0in /  0.0mm 44 W/m2
17:15 45.7 °F /  7.6 °C 40.1 °F /  4.5 °C 29.9in /  1013.8hPa Calm   6mph /  9.7km/h 81% 0in /  0.0mm 53 W/m2
17:20 45.5 °F /  7.5 °C 40.6 °F /  4.8 °C 29.9in /  1013.8hPa NW 3mph /  4.8km/h 6mph /  9.7km/h 83% 0in /  0.0mm 56 W/m2
17:25 45.5 °F /  7.5 °C 40.6 °F /  4.8 °C 29.9in /  1013.8hPa Calm   6mph /  9.7km/h 83% 0in /  0.0mm 46 W/m2
17:30 45.7 °F /  7.6 °C 40.5 °F /  4.7 °C 29.9in /  1014.1hPa Calm   6mph /  9.7km/h 82% 0in /  0.0mm 40 W/m2
17:35 45.7 °F /  7.6 °C 40.8 °F /  4.9 °C 29.9in /  1014.1hPa NW 4mph /  6.4km/h 6mph /  9.7km/h 83% 0in /  0.0mm 28 W/m2
17:40 45.5 °F /  7.5 °C 41 °F /  5.0 °C 29.9in /  1014.1hPa WNW 4mph /  6.4km/h 6mph /  9.7km/h 84% 0in /  0.0mm 21 W/m2
17:45 45.7 °F /  7.6 °C 40.5 °F /  4.7 °C 29.9in /  1014.1hPa NW 3mph /  4.8km/h 8mph /  12.9km/h 82% 0in /  0.0mm 26 W/m2
17:50 45.7 °F /  7.6 °C 40.5 °F /  4.7 °C 29.9in /  1014.1hPa NW 3mph /  4.8km/h 8mph /  12.9km/h 82% 0in /  0.0mm 25 W/m2
17:55 45.3 °F /  7.4 °C 40.3 °F /  4.6 °C 29.9in /  1014.1hPa NW 4mph /  6.4km/h 12mph /  19.3km/h 82% 0in /  0.0mm 21 W/m2
18:00 45.1 °F /  7.3 °C 39.9 °F /  4.4 °C 30in /  1014.4hPa North 7mph /  11.3km/h 12mph /  19.3km/h 82% 0in /  0.0mm 19 W/m2
18:05 44.8 °F /  7.1 °C 38.7 °F /  3.7 °C 30in /  1014.4hPa NNW 1mph /  1.6km/h 11mph /  17.7km/h 79% 0in /  0.0mm 16 W/m2
18:10 44.4 °F /  6.9 °C 38.3 °F /  3.5 °C 30in /  1014.4hPa WNW 2mph /  3.2km/h 14mph /  22.5km/h 79% 0in /  0.0mm 12 W/m2
18:15 44.1 °F /  6.7 °C 37.8 °F /  3.2 °C 30in /  1014.8hPa NW 4mph /  6.4km/h 14mph /  22.5km/h 78% 0in /  0.0mm 9 W/m2
18:20 43.9 °F /  6.6 °C 37.8 °F /  3.2 °C 30in /  1014.8hPa NNW 11mph /  17.7km/h 17mph /  27.4km/h 79% 0in /  0.0mm 5 W/m2
18:25 43.9 °F /  6.6 °C 37.8 °F /  3.2 °C 30in /  1014.8hPa NW 7mph /  11.3km/h 17mph /  27.4km/h 79% 0in /  0.0mm 0 W/m2
18:30 43.7 °F /  6.5 °C 37.6 °F /  3.1 °C 30in /  1015.1hPa North 6mph /  9.7km/h 13mph /  20.9km/h 79% 0in /  0.0mm 0 W/m2
18:35 43.5 °F /  6.4 °C 37.6 °F /  3.1 °C 30in /  1015.1hPa NNW 7mph /  11.3km/h 14mph /  22.5km/h 79% 0in /  0.0mm 0 W/m2
18:40 43.3 °F /  6.3 °C 37.6 °F /  3.1 °C 30in /  1015.1hPa NNE 3mph /  4.8km/h 14mph /  22.5km/h 80% 0in /  0.0mm 0 W/m2
18:45 43 °F /  6.1 °C 37.6 °F /  3.1 °C 30in /  1015.1hPa NNW 4mph /  6.4km/h 12mph /  19.3km/h 81% 0in /  0.0mm 0 W/m2
18:50 42.6 °F /  5.9 °C 37.4 °F /  3.0 °C 30in /  1015.1hPa North 4mph /  6.4km/h 12mph /  19.3km/h 82% 0in /  0.0mm 0 W/m2
18:55 42.4 °F /  5.8 °C 37.4 °F /  3.0 °C 30in /  1015.5hPa Calm   10mph /  16.1km/h 82% 0in /  0.0mm 0 W/m2
19:00 42.3 °F /  5.7 °C 37.4 °F /  3.0 °C 30in /  1015.5hPa NW 4mph /  6.4km/h 8mph /  12.9km/h 83% 0in /  0.0mm 0 W/m2
19:05 42.3 °F /  5.7 °C 37 °F /  2.8 °C 30in /  1015.5hPa North 3mph /  4.8km/h 8mph /  12.9km/h 82% 0in /  0.0mm 0 W/m2
19:10 42.1 °F /  5.6 °C 37.2 °F /  2.9 °C 30in /  1015.8hPa NW 1mph /  1.6km/h 8mph /  12.9km/h 83% 0in /  0.0mm 0 W/m2
19:15 41.9 °F /  5.5 °C 37 °F /  2.8 °C 30in /  1015.8hPa NNW 4mph /  6.4km/h 8mph /  12.9km/h 83% 0in /  0.0mm 0 W/m2
19:20 41.5 °F /  5.3 °C 36.9 °F /  2.7 °C 30in /  1015.8hPa NW 2mph /  3.2km/h 8mph /  12.9km/h 83% 0in /  0.0mm 0 W/m2
19:25 41.5 °F /  5.3 °C 36.7 °F /  2.6 °C 30in /  1015.8hPa NW 3mph /  4.8km/h 8mph /  12.9km/h 83% 0in /  0.0mm 0 W/m2
19:30 41 °F /  5.0 °C 36.5 °F /  2.5 °C 30in /  1015.8hPa NW 4mph /  6.4km/h 8mph /  12.9km/h 84% 0in /  0.0mm 0 W/m2
19:35 40.8 °F /  4.9 °C 36.5 °F /  2.5 °C 30in /  1015.8hPa NW 2mph /  3.2km/h 6mph /  9.7km/h 84% 0in /  0.0mm 0 W/m2
19:40 40.8 °F /  4.9 °C 36.3 °F /  2.4 °C 30in /  1015.8hPa WNW 2mph /  3.2km/h 6mph /  9.7km/h 84% 0in /  0.0mm 0 W/m2
19:45 40.8 °F /  4.9 °C 36.3 °F /  2.4 °C 30in /  1016.1hPa Calm   7mph /  11.3km/h 84% 0in /  0.0mm 0 W/m2
19:50 40.8 °F /  4.9 °C 36.1 °F /  2.3 °C 30in /  1016.1hPa WNW 2mph /  3.2km/h 10mph /  16.1km/h 83% 0in /  0.0mm 0 W/m2
19:55 41.2 °F /  5.1 °C 36 °F /  2.2 °C 30in /  1016.1hPa NW 6mph /  9.7km/h 10mph /  16.1km/h 82% 0in /  0.0mm 0 W/m2
20:00 40.6 °F /  4.8 °C 35.2 °F /  1.8 °C 30in /  1016.1hPa NW 2mph /  3.2km/h 8mph /  12.9km/h 81% 0in /  0.0mm 0 W/m2
20:05 39.9 °F /  4.4 °C 34.7 °F /  1.5 °C 30in /  1016.1hPa NNW 1mph /  1.6km/h 8mph /  12.9km/h 81% 0in /  0.0mm 0 W/m2
20:10 39.6 °F /  4.2 °C 34.5 °F /  1.4 °C 30in /  1016.5hPa WNW 3mph /  4.8km/h 8mph /  12.9km/h 82% 0in /  0.0mm 0 W/m2
20:15 39.4 °F /  4.1 °C 34.3 °F /  1.3 °C 30in /  1016.5hPa NNW 4mph /  6.4km/h 7mph /  11.3km/h 82% 0in /  0.0mm 0 W/m2
20:20 39.4 °F /  4.1 °C 34 °F /  1.1 °C 30in /  1016.5hPa WNW 3mph /  4.8km/h 14mph /  22.5km/h 81% 0in /  0.0mm 0 W/m2
20:25 39.6 °F /  4.2 °C 34.2 °F /  1.2 °C 30in /  1016.8hPa NNW 6mph /  9.7km/h 14mph /  22.5km/h 81% 0in /  0.0mm 0 W/m2
20:30 39.4 °F /  4.1 °C 33.8 °F /  1.0 °C 30in /  1016.8hPa NW 2mph /  3.2km/h 12mph /  19.3km/h 80% 0in /  0.0mm 0 W/m2
20:35 39.4 °F /  4.1 °C 34 °F /  1.1 °C 30in /  1016.8hPa NW 2mph /  3.2km/h 11mph /  17.7km/h 81% 0in /  0.0mm 0 W/m2
20:40 38.8 °F /  3.8 °C 33.6 °F /  0.9 °C 30in /  1017.2hPa WNW 3mph /  4.8km/h 11mph /  17.7km/h 81% 0in /  0.0mm 0 W/m2
20:45 38.8 °F /  3.8 °C 33.8 °F /  1.0 °C 30in /  1017.2hPa NNW 4mph /  6.4km/h 12mph /  19.3km/h 82% 0in /  0.0mm 0 W/m2
20:50 38.7 °F /  3.7 °C 33.6 °F /  0.9 °C 30in /  1017.2hPa North 6mph /  9.7km/h 12mph /  19.3km/h 82% 0in /  0.0mm 0 W/m2
20:55 38.5 °F /  3.6 °C 33.8 °F /  1.0 °C 30in /  1017.2hPa WNW 1mph /  1.6km/h 11mph /  17.7km/h 83% 0in /  0.0mm 0 W/m2
21:00 38.5 °F /  3.6 °C 34.2 °F /  1.2 °C 30.1in /  1017.5hPa NW 9mph /  14.5km/h 11mph /  17.7km/h 84% 0in /  0.0mm 0 W/m2
21:05 38.5 °F /  3.6 °C 34 °F /  1.1 °C 30.1in /  1017.5hPa NNW 2mph /  3.2km/h 9mph /  14.5km/h 84% 0in /  0.0mm 0 W/m2
21:10 38.1 °F /  3.4 °C 34.2 °F /  1.2 °C 30.1in /  1017.5hPa North 3mph /  4.8km/h 9mph /  14.5km/h 85% 0in /  0.0mm 0 W/m2
21:15 37.9 °F /  3.3 °C 33.8 °F /  1.0 °C 30.1in /  1017.5hPa WNW 4mph /  6.4km/h 9mph /  14.5km/h 85% 0in /  0.0mm 0 W/m2
21:20 38.1 °F /  3.4 °C 34.3 °F /  1.3 °C 30.1in /  1017.5hPa WNW 9mph /  14.5km/h 17mph /  27.4km/h 86% 0in /  0.0mm 0 W/m2
21:30 38.3 °F /  3.5 °C 34.2 °F /  1.2 °C 30.1in /  1017.8hPa Calm   14mph /  22.5km/h 85% 0in /  0.0mm 0 W/m2
21:35 37.9 °F /  3.3 °C 33.8 °F /  1.0 °C 30.1in /  1017.8hPa NW 3mph /  4.8km/h 12mph /  19.3km/h 85% 0in /  0.0mm 0 W/m2
21:40 37.6 °F /  3.1 °C 33.8 °F /  1.0 °C 30.1in /  1017.8hPa NNW 3mph /  4.8km/h 10mph /  16.1km/h 86% 0in /  0.0mm 0 W/m2
21:45 37.2 °F /  2.9 °C 33.4 °F /  0.8 °C 30.1in /  1017.8hPa NNW 1mph /  1.6km/h 10mph /  16.1km/h 86% 0in /  0.0mm 0 W/m2
21:50 37 °F /  2.8 °C 33.3 °F /  0.7 °C 30.1in /  1017.8hPa NNW 1mph /  1.6km/h 10mph /  16.1km/h 86% 0in /  0.0mm 0 W/m2
21:55 36.9 °F /  2.7 °C 33.3 °F /  0.7 °C 30.1in /  1017.8hPa NNW 2mph /  3.2km/h 10mph /  16.1km/h 87% 0in /  0.0mm 0 W/m2
22:00 36.5 °F /  2.5 °C 33.1 °F /  0.6 °C 30.1in /  1017.8hPa NW 2mph /  3.2km/h 8mph /  12.9km/h 87% 0in /  0.0mm 0 W/m2
22:10 36.3 °F /  2.4 °C 33.1 °F /  0.6 °C 30.1in /  1018.2hPa NW 3mph /  4.8km/h 7mph /  11.3km/h 88% 0in /  0.0mm 0 W/m2
22:15 36 °F /  2.2 °C 32.7 °F /  0.4 °C 30.1in /  1018.2hPa WNW 2mph /  3.2km/h 7mph /  11.3km/h 88% 0in /  0.0mm 0 W/m2
22:20 35.8 °F /  2.1 °C 32.5 °F /  0.3 °C 30.1in /  1018.2hPa Calm   7mph /  11.3km/h 88% 0in /  0.0mm 0 W/m2
22:25 36 °F /  2.2 °C 32.9 °F /  0.5 °C 30.1in /  1018.2hPa NW 2mph /  3.2km/h 6mph /  9.7km/h 89% 0in /  0.0mm 0 W/m2
22:30 35.8 °F /  2.1 °C 32.9 °F /  0.5 °C 30.1in /  1018.2hPa WNW 1mph /  1.6km/h 5mph /  8.0km/h 89% 0in /  0.0mm 0 W/m2
22:35 36 °F /  2.2 °C 32.9 °F /  0.5 °C 30.1in /  1018.2hPa NW 2mph /  3.2km/h 6mph /  9.7km/h 89% 0in /  0.0mm 0 W/m2
22:40 36 °F /  2.2 °C 32.9 °F /  0.5 °C 30.1in /  1018.2hPa NW 4mph /  6.4km/h 6mph /  9.7km/h 89% 0in /  0.0mm 0 W/m2
22:45 35.8 °F /  2.1 °C 32.7 °F /  0.4 °C 30.1in /  1018.5hPa WNW 1mph /  1.6km/h 6mph /  9.7km/h 89% 0in /  0.0mm 0 W/m2
22:50 35.6 °F /  2.0 °C 32.7 °F /  0.4 °C 30.1in /  1018.5hPa WNW 2mph /  3.2km/h 5mph /  8.0km/h 89% 0in /  0.0mm 0 W/m2
22:55 35.8 °F /  2.1 °C 33.1 °F /  0.6 °C 30.1in /  1018.5hPa WNW 2mph /  3.2km/h 5mph /  8.0km/h 90% 0in /  0.0mm 0 W/m2
23:00 35.2 °F /  1.8 °C 32.4 °F /  0.2 °C 30.1in /  1018.5hPa WNW 4mph /  6.4km/h 5mph /  8.0km/h 89% 0in /  0.0mm 0 W/m2
23:05 34.9 °F /  1.6 °C 32.2 °F /  0.1 °C 30.1in /  1018.5hPa WNW 3mph /  4.8km/h 5mph /  8.0km/h 90% 0in /  0.0mm 0 W/m2
23:10 34.9 °F /  1.6 °C 32.2 °F /  0.1 °C 30.1in /  1018.5hPa WNW 1mph /  1.6km/h 7mph /  11.3km/h 90% 0in /  0.0mm 0 W/m2
23:15 35.1 °F /  1.7 °C 32.7 °F /  0.4 °C 30.1in /  1018.5hPa WNW 4mph /  6.4km/h 7mph /  11.3km/h 91% 0in /  0.0mm 0 W/m2
23:20 35.2 °F /  1.8 °C 32.9 °F /  0.5 °C 30.1in /  1018.5hPa NW 4mph /  6.4km/h 7mph /  11.3km/h 91% 0in /  0.0mm 0 W/m2
23:25 35.2 °F /  1.8 °C 32.9 °F /  0.5 °C 30.1in /  1018.5hPa WNW 3mph /  4.8km/h 7mph /  11.3km/h 91% 0in /  0.0mm 0 W/m2
23:30 35.6 °F /  2.0 °C 33.4 °F /  0.8 °C 30.1in /  1018.5hPa NW 2mph /  3.2km/h 6mph /  9.7km/h 92% 0in /  0.0mm 0 W/m2
23:35 35.8 °F /  2.1 °C 33.6 °F /  0.9 °C 30.1in /  1018.5hPa WNW 2mph /  3.2km/h 8mph /  12.9km/h 92% 0in /  0.0mm 0 W/m2
23:40 35.8 °F /  2.1 °C 33.6 °F /  0.9 °C 30.1in /  1018.8hPa NW 5mph /  8.0km/h 8mph /  12.9km/h 92% 0in /  0.0mm 0 W/m2
23:45 35.8 °F /  2.1 °C 33.6 °F /  0.9 °C 30.1in /  1018.8hPa NW 2mph /  3.2km/h 8mph /  12.9km/h 92% 0in /  0.0mm 0 W/m2
23:50 36 °F /  2.2 °C 34 °F /  1.1 °C 30.1in /  1018.8hPa NW 5mph /  8.0km/h 8mph /  12.9km/h 92% 0in /  0.0mm 0 W/m2
23:55 36.1 °F /  2.3 °C 34 °F /  1.1 °C 30.1in /  1018.8hPa NW 1mph /  1.6km/h 6mph /  9.7km/h 92% 0in /  0.0mm 0 W/m2